Windom, Minnesota
Current Conditions -  °F | °C
As of 10:33 AM on Tuesday 27 Jan 2015 (Local Time) from KMWM Reporting Station
Overcast Overcast  
Wind Chill: 24°   Ceiling: 500
Heat Index: 32°   Visibility: 10mi
Dew Point: 30°   Wind: 9mph
Humidity: 93%   Direction: 110°ESE
Pressure: 30.13"   Gusts: NA
Location:  43.87°N, 95.12°W
Report Text: KMWM 271633Z AUTO 11008KT 10SM OVC005 00/M01 A3013 RMK AO2
Loading
Personal Weather Stations






























Interactive Weather Map New forecast layout! Learn more

10-Day Weather Forecast

Advertisements
Track Severe Weather on mobile